sensor_id;sensor_type;location;lat;lon;timestamp;P1;durP1;ratioP1;P2;durP2;ratioP2
4174;SDS011;2101;48.290;14.382;2022-12-05T00:02:18;16.87;;;4.63;;
4174;SDS011;2101;48.290;14.382;2022-12-05T00:04:45;17.20;;;4.50;;
4174;SDS011;2101;48.290;14.382;2022-12-05T00:07:11;17.53;;;4.33;;
4174;SDS011;2101;48.290;14.382;2022-12-05T00:09:37;19.70;;;5.17;;
4174;SDS011;2101;48.290;14.382;2022-12-05T00:12:03;17.80;;;4.00;;
4174;SDS011;2101;48.290;14.382;2022-12-05T00:14:29;17.17;;;4.70;;
4174;SDS011;2101;48.290;14.382;2022-12-05T00:16:55;20.97;;;4.47;;
4174;SDS011;2101;48.290;14.382;2022-12-05T00:19:21;19.50;;;5.27;;
4174;SDS011;2101;48.290;14.382;2022-12-05T00:21:47;16.10;;;4.43;;
4174;SDS011;2101;48.290;14.382;2022-12-05T00:24:14;16.70;;;4.37;;
4174;SDS011;2101;48.290;14.382;2022-12-05T00:26:41;18.93;;;4.33;;
4174;SDS011;2101;48.290;14.382;2022-12-05T00:29:07;16.77;;;4.23;;
4174;SDS011;2101;48.290;14.382;2022-12-05T00:31:34;20.33;;;5.20;;
4174;SDS011;2101;48.290;14.382;2022-12-05T00:34:00;17.00;;;4.47;;
4174;SDS011;2101;48.290;14.382;2022-12-05T00:36:27;21.53;;;4.73;;
4174;SDS011;2101;48.290;14.382;2022-12-05T00:38:54;16.27;;;4.50;;
4174;SDS011;2101;48.290;14.382;2022-12-05T00:41:21;17.67;;;4.70;;
4174;SDS011;2101;48.290;14.382;2022-12-05T00:43:48;15.60;;;4.20;;
4174;SDS011;2101;48.290;14.382;2022-12-05T00:46:18;19.10;;;5.13;;
4174;SDS011;2101;48.290;14.382;2022-12-05T00:48:45;16.97;;;4.67;;
4174;SDS011;2101;48.290;14.382;2022-12-05T00:51:17;20.60;;;4.97;;
4174;SDS011;2101;48.290;14.382;2022-12-05T00:53:44;17.80;;;4.60;;
4174;SDS011;2101;48.290;14.382;2022-12-05T00:56:11;16.70;;;4.30;;
4174;SDS011;2101;48.290;14.382;2022-12-05T00:58:37;17.60;;;4.30;;
4174;SDS011;2101;48.290;14.382;2022-12-05T01:01:05;17.17;;;4.73;;
4174;SDS011;2101;48.290;14.382;2022-12-05T01:03:31;18.57;;;4.70;;
4174;SDS011;2101;48.290;14.382;2022-12-05T01:05:57;17.83;;;4.77;;
4174;SDS011;2101;48.290;14.382;2022-12-05T01:08:23;15.80;;;4.33;;
4174;SDS011;2101;48.290;14.382;2022-12-05T01:10:53;22.10;;;5.60;;
4174;SDS011;2101;48.290;14.382;2022-12-05T01:13:20;19.63;;;5.00;;
4174;SDS011;2101;48.290;14.382;2022-12-05T01:15:46;30.80;;;5.50;;
4174;SDS011;2101;48.290;14.382;2022-12-05T01:18:12;21.90;;;5.30;;
4174;SDS011;2101;48.290;14.382;2022-12-05T01:20:38;20.80;;;5.80;;
4174;SDS011;2101;48.290;14.382;2022-12-05T01:23:05;17.40;;;4.70;;
4174;SDS011;2101;48.290;14.382;2022-12-05T01:25:31;21.10;;;5.17;;
4174;SDS011;2101;48.290;14.382;2022-12-05T01:27:57;22.40;;;5.20;;
4174;SDS011;2101;48.290;14.382;2022-12-05T01:30:24;18.90;;;4.30;;
4174;SDS011;2101;48.290;14.382;2022-12-05T01:32:50;19.73;;;5.37;;
4174;SDS011;2101;48.290;14.382;2022-12-05T01:35:16;17.73;;;4.53;;
4174;SDS011;2101;48.290;14.382;2022-12-05T01:37:43;22.83;;;4.40;;
4174;SDS011;2101;48.290;14.382;2022-12-05T01:40:09;17.90;;;4.77;;
4174;SDS011;2101;48.290;14.382;2022-12-05T01:42:35;18.70;;;5.30;;
4174;SDS011;2101;48.290;14.382;2022-12-05T01:45:14;17.20;;;5.03;;
4174;SDS011;2101;48.290;14.382;2022-12-05T01:47:41;17.40;;;5.20;;
4174;SDS011;2101;48.290;14.382;2022-12-05T01:50:07;20.33;;;5.07;;
4174;SDS011;2101;48.290;14.382;2022-12-05T01:52:34;18.03;;;5.20;;
4174;SDS011;2101;48.290;14.382;2022-12-05T01:55:05;17.67;;;4.87;;
4174;SDS011;2101;48.290;14.382;2022-12-05T01:57:32;18.60;;;4.50;;
4174;SDS011;2101;48.290;14.382;2022-12-05T02:00:00;20.20;;;5.10;;
4174;SDS011;2101;48.290;14.382;2022-12-05T02:02:27;16.90;;;4.40;;
4174;SDS011;2101;48.290;14.382;2022-12-05T02:07:23;19.97;;;5.40;;
4174;SDS011;2101;48.290;14.382;2022-12-05T02:09:49;20.47;;;5.47;;
4174;SDS011;2101;48.290;14.382;2022-12-05T02:12:15;22.10;;;6.30;;
4174;SDS011;2101;48.290;14.382;2022-12-05T02:17:32;22.10;;;5.53;;
4174;SDS011;2101;48.290;14.382;2022-12-05T02:23:01;19.30;;;5.20;;
4174;SDS011;2101;48.290;14.382;2022-12-05T02:36:04;17.40;;;4.97;;
4174;SDS011;2101;48.290;14.382;2022-12-05T02:43:36;17.23;;;4.33;;
4174;SDS011;2101;48.290;14.382;2022-12-05T02:46:07;18.90;;;4.23;;
4174;SDS011;2101;48.290;14.382;2022-12-05T02:48:34;15.70;;;3.50;;
4174;SDS011;2101;48.290;14.382;2022-12-05T02:51:02;15.17;;;4.07;;
4174;SDS011;2101;48.290;14.382;2022-12-05T02:53:29;15.17;;;3.60;;
4174;SDS011;2101;48.290;14.382;2022-12-05T02:55:56;16.40;;;3.50;;
4174;SDS011;2101;48.290;14.382;2022-12-05T02:58:37;16.07;;;3.87;;
4174;SDS011;2101;48.290;14.382;2022-12-05T03:01:03;14.20;;;3.33;;
4174;SDS011;2101;48.290;14.382;2022-12-05T03:03:30;16.53;;;3.57;;
4174;SDS011;2101;48.290;14.382;2022-12-05T03:06:08;14.97;;;3.37;;
4174;SDS011;2101;48.290;14.382;2022-12-05T03:11:45;16.57;;;4.30;;
4174;SDS011;2101;48.290;14.382;2022-12-05T03:14:14;16.87;;;4.40;;
4174;SDS011;2101;48.290;14.382;2022-12-05T03:16:43;14.80;;;3.70;;
4174;SDS011;2101;48.290;14.382;2022-12-05T03:19:14;17.23;;;3.50;;
4174;SDS011;2101;48.290;14.382;2022-12-05T03:21:53;17.40;;;4.43;;
4174;SDS011;2101;48.290;14.382;2022-12-05T03:24:21;16.70;;;4.10;;
4174;SDS011;2101;48.290;14.382;2022-12-05T03:29:28;17.77;;;3.90;;
4174;SDS011;2101;48.290;14.382;2022-12-05T03:34:35;18.20;;;4.60;;
4174;SDS011;2101;48.290;14.382;2022-12-05T03:37:04;22.73;;;6.30;;
4174;SDS011;2101;48.290;14.382;2022-12-05T03:39:32;20.73;;;5.50;;
4174;SDS011;2101;48.290;14.382;2022-12-05T03:47:11;18.13;;;5.00;;
4174;SDS011;2101;48.290;14.382;2022-12-05T03:49:50;17.17;;;4.47;;
4174;SDS011;2101;48.290;14.382;2022-12-05T03:52:27;22.90;;;5.30;;
4174;SDS011;2101;48.290;14.382;2022-12-05T03:54:55;19.03;;;4.50;;
4174;SDS011;2101;48.290;14.382;2022-12-05T03:57:33;16.77;;;4.30;;
4174;SDS011;2101;48.290;14.382;2022-12-05T04:00:03;19.83;;;5.43;;
4174;SDS011;2101;48.290;14.382;2022-12-05T04:05:19;23.23;;;6.20;;
4174;SDS011;2101;48.290;14.382;2022-12-05T04:07:48;21.57;;;5.57;;
4174;SDS011;2101;48.290;14.382;2022-12-05T04:10:19;16.60;;;4.00;;
4174;SDS011;2101;48.290;14.382;2022-12-05T04:12:47;18.80;;;5.13;;
4174;SDS011;2101;48.290;14.382;2022-12-05T04:15:24;24.43;;;6.30;;
4174;SDS011;2101;48.290;14.382;2022-12-05T04:18:13;19.37;;;5.10;;
4174;SDS011;2101;48.290;14.382;2022-12-05T04:20:42;22.33;;;6.23;;
4174;SDS011;2101;48.290;14.382;2022-12-05T04:23:27;19.30;;;5.10;;
4174;SDS011;2101;48.290;14.382;2022-12-05T04:28:40;25.20;;;6.50;;
4174;SDS011;2101;48.290;14.382;2022-12-05T04:31:24;18.40;;;5.40;;
4174;SDS011;2101;48.290;14.382;2022-12-05T04:33:51;19.50;;;5.20;;
4174;SDS011;2101;48.290;14.382;2022-12-05T04:38:52;20.60;;;5.60;;
4174;SDS011;2101;48.290;14.382;2022-12-05T04:41:21;21.13;;;5.10;;
4174;SDS011;2101;48.290;14.382;2022-12-05T04:43:48;19.87;;;5.20;;
4174;SDS011;2101;48.290;14.382;2022-12-05T04:46:16;19.53;;;5.30;;
4174;SDS011;2101;48.290;14.382;2022-12-05T04:48:45;19.80;;;5.23;;
4174;SDS011;2101;48.290;14.382;2022-12-05T04:51:19;23.67;;;6.23;;
4174;SDS011;2101;48.290;14.382;2022-12-05T04:53:46;25.77;;;6.17;;
4174;SDS011;2101;48.290;14.382;2022-12-05T04:56:14;25.40;;;7.07;;
4174;SDS011;2101;48.290;14.382;2022-12-05T04:58:43;20.53;;;5.63;;
4174;SDS011;2101;48.290;14.382;2022-12-05T05:06:09;19.40;;;6.20;;
4174;SDS011;2101;48.290;14.382;2022-12-05T05:08:36;20.50;;;5.90;;
4174;SDS011;2101;48.290;14.382;2022-12-05T05:11:09;20.67;;;5.70;;
4174;SDS011;2101;48.290;14.382;2022-12-05T05:13:36;22.43;;;5.97;;
4174;SDS011;2101;48.290;14.382;2022-12-05T05:16:02;22.27;;;6.23;;
4174;SDS011;2101;48.290;14.382;2022-12-05T05:18:28;21.73;;;6.40;;
4174;SDS011;2101;48.290;14.382;2022-12-05T05:20:54;22.83;;;6.57;;
4174;SDS011;2101;48.290;14.382;2022-12-05T05:23:21;23.00;;;6.00;;
4174;SDS011;2101;48.290;14.382;2022-12-05T05:25:51;23.30;;;6.23;;
4174;SDS011;2101;48.290;14.382;2022-12-05T05:28:17;24.30;;;6.70;;
4174;SDS011;2101;48.290;14.382;2022-12-05T05:30:43;25.77;;;7.30;;
4174;SDS011;2101;48.290;14.382;2022-12-05T05:33:09;22.47;;;6.23;;
4174;SDS011;2101;48.290;14.382;2022-12-05T05:35:35;25.07;;;7.10;;
4174;SDS011;2101;48.290;14.382;2022-12-05T05:38:04;23.63;;;6.70;;
4174;SDS011;2101;48.290;14.382;2022-12-05T05:40:33;19.17;;;5.13;;
4174;SDS011;2101;48.290;14.382;2022-12-05T05:43:00;21.87;;;5.93;;
4174;SDS011;2101;48.290;14.382;2022-12-05T05:45:26;21.90;;;6.30;;
4174;SDS011;2101;48.290;14.382;2022-12-05T05:47:52;19.70;;;5.67;;
4174;SDS011;2101;48.290;14.382;2022-12-05T05:50:18;22.20;;;7.30;;
4174;SDS011;2101;48.290;14.382;2022-12-05T05:52:44;19.67;;;5.60;;
4174;SDS011;2101;48.290;14.382;2022-12-05T05:55:10;21.90;;;6.83;;
4174;SDS011;2101;48.290;14.382;2022-12-05T05:57:37;22.37;;;6.13;;
4174;SDS011;2101;48.290;14.382;2022-12-05T06:00:06;22.90;;;6.30;;
4174;SDS011;2101;48.290;14.382;2022-12-05T06:02:33;22.73;;;6.77;;
4174;SDS011;2101;48.290;14.382;2022-12-05T06:04:59;20.93;;;5.70;;
4174;SDS011;2101;48.290;14.382;2022-12-05T06:07:26;21.20;;;5.87;;
4174;SDS011;2101;48.290;14.382;2022-12-05T06:09:52;26.33;;;6.47;;
4174;SDS011;2101;48.290;14.382;2022-12-05T06:12:18;23.03;;;6.63;;
4174;SDS011;2101;48.290;14.382;2022-12-05T06:14:46;19.73;;;5.37;;
4174;SDS011;2101;48.290;14.382;2022-12-05T06:17:12;22.77;;;6.23;;
4174;SDS011;2101;48.290;14.382;2022-12-05T06:19:39;18.60;;;5.23;;
4174;SDS011;2101;48.290;14.382;2022-12-05T06:22:05;21.23;;;5.77;;
4174;SDS011;2101;48.290;14.382;2022-12-05T06:24:31;20.07;;;5.73;;
4174;SDS011;2101;48.290;14.382;2022-12-05T06:26:57;25.10;;;7.20;;
4174;SDS011;2101;48.290;14.382;2022-12-05T06:29:23;25.73;;;6.53;;
4174;SDS011;2101;48.290;14.382;2022-12-05T06:31:49;22.57;;;7.30;;
4174;SDS011;2101;48.290;14.382;2022-12-05T06:34:15;24.70;;;7.97;;
4174;SDS011;2101;48.290;14.382;2022-12-05T06:36:41;21.40;;;6.40;;
4174;SDS011;2101;48.290;14.382;2022-12-05T06:39:07;27.73;;;7.27;;
4174;SDS011;2101;48.290;14.382;2022-12-05T06:41:33;32.90;;;6.90;;
4174;SDS011;2101;48.290;14.382;2022-12-05T06:43:59;21.30;;;6.40;;
4174;SDS011;2101;48.290;14.382;2022-12-05T06:46:26;22.50;;;6.07;;
4174;SDS011;2101;48.290;14.382;2022-12-05T06:48:53;26.67;;;7.60;;
4174;SDS011;2101;48.290;14.382;2022-12-05T06:51:19;24.53;;;7.07;;
4174;SDS011;2101;48.290;14.382;2022-12-05T06:53:45;22.13;;;6.17;;
4174;SDS011;2101;48.290;14.382;2022-12-05T06:56:14;20.07;;;6.07;;
4174;SDS011;2101;48.290;14.382;2022-12-05T06:58:41;20.30;;;6.57;;
4174;SDS011;2101;48.290;14.382;2022-12-05T07:01:12;22.30;;;6.33;;
4174;SDS011;2101;48.290;14.382;2022-12-05T07:03:57;24.40;;;6.63;;
4174;SDS011;2101;48.290;14.382;2022-12-05T07:06:23;22.30;;;5.40;;
4174;SDS011;2101;48.290;14.382;2022-12-05T07:08:49;21.37;;;6.27;;
4174;SDS011;2101;48.290;14.382;2022-12-05T07:11:15;22.50;;;6.40;;
4174;SDS011;2101;48.290;14.382;2022-12-05T07:13:41;20.03;;;6.40;;
4174;SDS011;2101;48.290;14.382;2022-12-05T07:16:08;22.17;;;6.20;;
4174;SDS011;2101;48.290;14.382;2022-12-05T07:18:34;24.50;;;6.23;;
4174;SDS011;2101;48.290;14.382;2022-12-05T07:21:04;25.20;;;7.43;;
4174;SDS011;2101;48.290;14.382;2022-12-05T07:23:30;22.00;;;6.43;;
4174;SDS011;2101;48.290;14.382;2022-12-05T07:25:57;20.60;;;5.90;;
4174;SDS011;2101;48.290;14.382;2022-12-05T07:28:23;25.00;;;6.40;;
4174;SDS011;2101;48.290;14.382;2022-12-05T07:30:59;24.73;;;7.10;;
4174;SDS011;2101;48.290;14.382;2022-12-05T07:33:25;25.83;;;7.13;;
4174;SDS011;2101;48.290;14.382;2022-12-05T07:35:52;24.03;;;7.50;;
4174;SDS011;2101;48.290;14.382;2022-12-05T07:38:18;22.03;;;6.70;;
4174;SDS011;2101;48.290;14.382;2022-12-05T07:40:44;25.90;;;7.67;;
4174;SDS011;2101;48.290;14.382;2022-12-05T07:43:10;25.90;;;8.00;;
4174;SDS011;2101;48.290;14.382;2022-12-05T07:45:36;27.40;;;7.10;;
4174;SDS011;2101;48.290;14.382;2022-12-05T07:48:02;22.87;;;7.20;;
4174;SDS011;2101;48.290;14.382;2022-12-05T07:50:28;26.20;;;7.80;;
4174;SDS011;2101;48.290;14.382;2022-12-05T07:52:54;26.77;;;7.63;;
4174;SDS011;2101;48.290;14.382;2022-12-05T07:55:20;30.27;;;8.20;;
4174;SDS011;2101;48.290;14.382;2022-12-05T07:57:46;30.00;;;6.80;;
4174;SDS011;2101;48.290;14.382;2022-12-05T08:00:12;27.53;;;8.33;;
4174;SDS011;2101;48.290;14.382;2022-12-05T08:02:39;26.10;;;7.20;;
4174;SDS011;2101;48.290;14.382;2022-12-05T08:05:05;28.60;;;6.87;;
4174;SDS011;2101;48.290;14.382;2022-12-05T08:07:31;27.03;;;7.20;;
4174;SDS011;2101;48.290;14.382;2022-12-05T08:09:57;22.97;;;6.60;;
4174;SDS011;2101;48.290;14.382;2022-12-05T08:12:23;21.07;;;6.47;;
4174;SDS011;2101;48.290;14.382;2022-12-05T08:14:49;30.33;;;7.00;;
4174;SDS011;2101;48.290;14.382;2022-12-05T08:17:16;21.37;;;6.07;;
4174;SDS011;2101;48.290;14.382;2022-12-05T08:19:42;27.73;;;7.43;;
4174;SDS011;2101;48.290;14.382;2022-12-05T08:22:09;35.53;;;8.57;;
4174;SDS011;2101;48.290;14.382;2022-12-05T08:24:35;24.47;;;7.17;;
4174;SDS011;2101;48.290;14.382;2022-12-05T08:27:02;21.50;;;6.43;;
4174;SDS011;2101;48.290;14.382;2022-12-05T08:29:28;32.50;;;6.77;;
4174;SDS011;2101;48.290;14.382;2022-12-05T08:31:54;23.87;;;7.10;;
4174;SDS011;2101;48.290;14.382;2022-12-05T08:34:21;25.90;;;7.40;;
4174;SDS011;2101;48.290;14.382;2022-12-05T08:36:47;23.77;;;6.43;;
4174;SDS011;2101;48.290;14.382;2022-12-05T08:39:15;20.07;;;5.97;;
4174;SDS011;2101;48.290;14.382;2022-12-05T08:41:42;21.77;;;6.13;;
4174;SDS011;2101;48.290;14.382;2022-12-05T08:44:08;24.50;;;7.43;;
4174;SDS011;2101;48.290;14.382;2022-12-05T08:46:36;24.10;;;6.87;;
4174;SDS011;2101;48.290;14.382;2022-12-05T08:49:03;20.40;;;6.70;;
4174;SDS011;2101;48.290;14.382;2022-12-05T08:51:30;23.83;;;6.87;;
4174;SDS011;2101;48.290;14.382;2022-12-05T08:53:56;25.17;;;7.00;;
4174;SDS011;2101;48.290;14.382;2022-12-05T08:56:22;22.40;;;6.37;;
4174;SDS011;2101;48.290;14.382;2022-12-05T08:58:48;25.37;;;6.83;;
4174;SDS011;2101;48.290;14.382;2022-12-05T09:01:16;28.80;;;6.57;;
4174;SDS011;2101;48.290;14.382;2022-12-05T09:03:42;23.57;;;6.60;;
4174;SDS011;2101;48.290;14.382;2022-12-05T09:06:12;21.97;;;6.53;;
4174;SDS011;2101;48.290;14.382;2022-12-05T09:08:39;26.33;;;7.00;;
4174;SDS011;2101;48.290;14.382;2022-12-05T09:11:06;21.10;;;6.20;;
4174;SDS011;2101;48.290;14.382;2022-12-05T09:13:33;24.23;;;6.60;;
4174;SDS011;2101;48.290;14.382;2022-12-05T09:16:03;22.97;;;6.97;;
4174;SDS011;2101;48.290;14.382;2022-12-05T09:18:29;30.10;;;6.17;;
4174;SDS011;2101;48.290;14.382;2022-12-05T09:20:55;24.87;;;6.43;;
4174;SDS011;2101;48.290;14.382;2022-12-05T09:23:22;27.40;;;7.30;;
4174;SDS011;2101;48.290;14.382;2022-12-05T09:25:54;22.47;;;6.80;;
4174;SDS011;2101;48.290;14.382;2022-12-05T09:28:22;35.60;;;7.67;;
4174;SDS011;2101;48.290;14.382;2022-12-05T09:30:55;28.83;;;6.83;;
4174;SDS011;2101;48.290;14.382;2022-12-05T09:33:21;28.57;;;7.60;;
4174;SDS011;2101;48.290;14.382;2022-12-05T09:35:47;25.97;;;7.43;;
4174;SDS011;2101;48.290;14.382;2022-12-05T09:38:14;30.77;;;6.97;;
4174;SDS011;2101;48.290;14.382;2022-12-05T09:40:40;25.40;;;7.07;;
4174;SDS011;2101;48.290;14.382;2022-12-05T09:43:07;24.03;;;6.73;;
4174;SDS011;2101;48.290;14.382;2022-12-05T09:45:42;24.00;;;6.07;;
4174;SDS011;2101;48.290;14.382;2022-12-05T09:48:14;32.20;;;6.93;;
4174;SDS011;2101;48.290;14.382;2022-12-05T09:50:44;25.30;;;6.60;;
4174;SDS011;2101;48.290;14.382;2022-12-05T09:53:15;26.93;;;7.37;;
4174;SDS011;2101;48.290;14.382;2022-12-05T10:00:44;26.40;;;7.60;;
4174;SDS011;2101;48.290;14.382;2022-12-05T10:05:49;24.57;;;7.93;;
4174;SDS011;2101;48.290;14.382;2022-12-05T10:08:25;29.00;;;8.40;;
4174;SDS011;2101;48.290;14.382;2022-12-05T10:13:36;38.67;;;9.90;;
4174;SDS011;2101;48.290;14.382;2022-12-05T10:16:09;26.17;;;8.17;;
4174;SDS011;2101;48.290;14.382;2022-12-05T10:18:43;31.27;;;9.80;;
4174;SDS011;2101;48.290;14.382;2022-12-05T10:21:12;24.87;;;7.30;;
4174;SDS011;2101;48.290;14.382;2022-12-05T10:26:10;27.87;;;8.43;;
4174;SDS011;2101;48.290;14.382;2022-12-05T10:31:07;28.57;;;8.40;;
4174;SDS011;2101;48.290;14.382;2022-12-05T10:33:39;27.13;;;8.83;;
4174;SDS011;2101;48.290;14.382;2022-12-05T10:36:08;30.10;;;7.90;;
4174;SDS011;2101;48.290;14.382;2022-12-05T10:38:34;26.73;;;8.30;;
4174;SDS011;2101;48.290;14.382;2022-12-05T10:41:03;27.57;;;8.67;;
4174;SDS011;2101;48.290;14.382;2022-12-05T10:43:30;26.20;;;8.60;;
4174;SDS011;2101;48.290;14.382;2022-12-05T10:45:57;29.00;;;8.30;;
4174;SDS011;2101;48.290;14.382;2022-12-05T10:48:25;28.80;;;8.50;;
4174;SDS011;2101;48.290;14.382;2022-12-05T10:50:52;32.43;;;8.50;;
4174;SDS011;2101;48.290;14.382;2022-12-05T10:53:20;36.37;;;8.90;;
4174;SDS011;2101;48.290;14.382;2022-12-05T10:55:48;32.57;;;8.63;;
4174;SDS011;2101;48.290;14.382;2022-12-05T10:58:16;28.90;;;8.03;;
4174;SDS011;2101;48.290;14.382;2022-12-05T11:00:47;27.37;;;8.43;;
4174;SDS011;2101;48.290;14.382;2022-12-05T11:03:34;46.87;;;9.20;;
4174;SDS011;2101;48.290;14.382;2022-12-05T11:06:02;31.50;;;8.90;;
4174;SDS011;2101;48.290;14.382;2022-12-05T11:08:39;31.40;;;9.60;;
4174;SDS011;2101;48.290;14.382;2022-12-05T11:11:07;29.43;;;9.47;;
4174;SDS011;2101;48.290;14.382;2022-12-05T11:13:35;37.43;;;9.97;;
4174;SDS011;2101;48.290;14.382;2022-12-05T11:16:01;31.53;;;8.83;;
4174;SDS011;2101;48.290;14.382;2022-12-05T11:20:54;33.50;;;9.40;;
4174;SDS011;2101;48.290;14.382;2022-12-05T11:23:23;31.83;;;8.50;;
4174;SDS011;2101;48.290;14.382;2022-12-05T11:25:50;24.73;;;7.70;;
4174;SDS011;2101;48.290;14.382;2022-12-05T11:33:25;31.13;;;9.77;;
4174;SDS011;2101;48.290;14.382;2022-12-05T11:35:52;36.20;;;8.63;;
4174;SDS011;2101;48.290;14.382;2022-12-05T11:38:20;29.40;;;8.53;;
4174;SDS011;2101;48.290;14.382;2022-12-05T12:01:35;32.57;;;8.87;;
4174;SDS011;2101;48.290;14.382;2022-12-05T12:14:33;22.30;;;5.70;;
4174;SDS011;2101;48.290;14.382;2022-12-05T12:20:02;22.33;;;5.43;;
4174;SDS011;2101;48.290;14.382;2022-12-05T12:30:16;27.50;;;6.30;;
4174;SDS011;2101;48.290;14.382;2022-12-05T12:32:53;22.07;;;6.00;;
4174;SDS011;2101;48.290;14.382;2022-12-05T12:37:52;22.40;;;5.47;;
4174;SDS011;2101;48.290;14.382;2022-12-05T12:40:39;24.60;;;4.57;;
4174;SDS011;2101;48.290;14.382;2022-12-05T12:51:02;22.00;;;5.07;;
4174;SDS011;2101;48.290;14.382;2022-12-05T13:04:29;21.07;;;4.30;;
4174;SDS011;2101;48.290;14.382;2022-12-05T13:07:02;17.03;;;3.87;;
4174;SDS011;2101;48.290;14.382;2022-12-05T13:09:34;19.50;;;3.87;;
4174;SDS011;2101;48.290;14.382;2022-12-05T13:12:36;17.17;;;4.27;;
4174;SDS011;2101;48.290;14.382;2022-12-05T13:14:57;17.23;;;4.00;;
4174;SDS011;2101;48.290;14.382;2022-12-05T13:17:24;20.53;;;4.17;;
4174;SDS011;2101;48.290;14.382;2022-12-05T13:19:51;19.67;;;3.93;;
4174;SDS011;2101;48.290;14.382;2022-12-05T13:22:21;18.20;;;3.97;;
4174;SDS011;2101;48.290;14.382;2022-12-05T13:24:51;15.83;;;4.13;;
4174;SDS011;2101;48.290;14.382;2022-12-05T13:27:18;19.43;;;4.37;;
4174;SDS011;2101;48.290;14.382;2022-12-05T13:29:50;18.00;;;4.30;;
4174;SDS011;2101;48.290;14.382;2022-12-05T13:32:28;16.17;;;3.20;;
4174;SDS011;2101;48.290;14.382;2022-12-05T13:34:59;15.50;;;3.07;;
4174;SDS011;2101;48.290;14.382;2022-12-05T13:37:30;29.80;;;3.80;;
4174;SDS011;2101;48.290;14.382;2022-12-05T13:43:06;22.90;;;4.50;;
4174;SDS011;2101;48.290;14.382;2022-12-05T13:45:34;20.57;;;4.67;;
4174;SDS011;2101;48.290;14.382;2022-12-05T13:50:29;16.60;;;3.60;;
4174;SDS011;2101;48.290;14.382;2022-12-05T13:53:05;13.63;;;3.20;;
4174;SDS011;2101;48.290;14.382;2022-12-05T13:55:53;19.43;;;4.03;;
4174;SDS011;2101;48.290;14.382;2022-12-05T14:00:49;16.50;;;3.87;;
4174;SDS011;2101;48.290;14.382;2022-12-05T14:05:47;26.77;;;5.53;;
4174;SDS011;2101;48.290;14.382;2022-12-05T14:11:08;23.03;;;4.20;;
4174;SDS011;2101;48.290;14.382;2022-12-05T14:13:38;17.40;;;4.47;;
4174;SDS011;2101;48.290;14.382;2022-12-05T14:21:56;22.53;;;4.37;;
4174;SDS011;2101;48.290;14.382;2022-12-05T14:34:26;19.63;;;4.37;;
4174;SDS011;2101;48.290;14.382;2022-12-05T14:37:03;19.77;;;4.60;;
4174;SDS011;2101;48.290;14.382;2022-12-05T14:42:00;17.07;;;3.93;;
4174;SDS011;2101;48.290;14.382;2022-12-05T14:44:28;22.07;;;5.40;;
4174;SDS011;2101;48.290;14.382;2022-12-05T14:46:59;21.23;;;4.80;;
4174;SDS011;2101;48.290;14.382;2022-12-05T14:52:17;27.70;;;5.00;;
4174;SDS011;2101;48.290;14.382;2022-12-05T14:54:44;20.93;;;4.77;;
4174;SDS011;2101;48.290;14.382;2022-12-05T14:57:11;22.97;;;4.97;;
4174;SDS011;2101;48.290;14.382;2022-12-05T15:02:14;20.50;;;5.23;;
4174;SDS011;2101;48.290;14.382;2022-12-05T15:12:03;17.90;;;3.87;;
4174;SDS011;2101;48.290;14.382;2022-12-05T15:14:39;26.83;;;5.50;;
4174;SDS011;2101;48.290;14.382;2022-12-05T15:17:08;19.17;;;4.10;;
4174;SDS011;2101;48.290;14.382;2022-12-05T15:19:42;18.60;;;3.77;;
4174;SDS011;2101;48.290;14.382;2022-12-05T15:22:10;21.73;;;4.47;;
4174;SDS011;2101;48.290;14.382;2022-12-05T15:24:38;18.07;;;4.37;;
4174;SDS011;2101;48.290;14.382;2022-12-05T15:27:05;16.90;;;3.60;;
4174;SDS011;2101;48.290;14.382;2022-12-05T15:29:31;19.10;;;4.00;;
4174;SDS011;2101;48.290;14.382;2022-12-05T15:31:58;19.80;;;4.20;;
4174;SDS011;2101;48.290;14.382;2022-12-05T15:39:28;19.80;;;4.60;;
4174;SDS011;2101;48.290;14.382;2022-12-05T15:41:55;17.80;;;3.77;;
4174;SDS011;2101;48.290;14.382;2022-12-05T15:44:22;17.60;;;3.97;;
4174;SDS011;2101;48.290;14.382;2022-12-05T15:46:52;19.33;;;4.47;;
4174;SDS011;2101;48.290;14.382;2022-12-05T15:49:21;19.97;;;4.77;;
4174;SDS011;2101;48.290;14.382;2022-12-05T15:51:48;18.20;;;4.70;;
4174;SDS011;2101;48.290;14.382;2022-12-05T15:54:16;20.23;;;4.40;;
4174;SDS011;2101;48.290;14.382;2022-12-05T15:56:45;18.27;;;5.10;;
4174;SDS011;2101;48.290;14.382;2022-12-05T15:59:15;16.20;;;3.80;;
4174;SDS011;2101;48.290;14.382;2022-12-05T16:01:43;17.20;;;4.33;;
4174;SDS011;2101;48.290;14.382;2022-12-05T16:06:44;20.70;;;4.33;;
4174;SDS011;2101;48.290;14.382;2022-12-05T16:09:14;16.90;;;4.07;;
4174;SDS011;2101;48.290;14.382;2022-12-05T16:11:54;17.60;;;4.20;;
4174;SDS011;2101;48.290;14.382;2022-12-05T16:14:21;19.87;;;4.10;;
4174;SDS011;2101;48.290;14.382;2022-12-05T16:16:48;17.73;;;3.70;;
4174;SDS011;2101;48.290;14.382;2022-12-05T16:19:20;17.60;;;3.37;;
4174;SDS011;2101;48.290;14.382;2022-12-05T16:22:00;17.97;;;3.80;;
4174;SDS011;2101;48.290;14.382;2022-12-05T16:24:28;19.17;;;3.77;;
4174;SDS011;2101;48.290;14.382;2022-12-05T16:29:27;21.80;;;4.87;;
4174;SDS011;2101;48.290;14.382;2022-12-05T16:31:54;20.10;;;4.40;;
4174;SDS011;2101;48.290;14.382;2022-12-05T16:34:22;16.40;;;3.87;;
4174;SDS011;2101;48.290;14.382;2022-12-05T16:36:48;19.27;;;4.47;;
4174;SDS011;2101;48.290;14.382;2022-12-05T16:39:15;19.37;;;3.97;;
4174;SDS011;2101;48.290;14.382;2022-12-05T16:41:41;15.60;;;3.53;;
4174;SDS011;2101;48.290;14.382;2022-12-05T16:46:54;19.60;;;4.47;;
4174;SDS011;2101;48.290;14.382;2022-12-05T16:52:01;15.37;;;3.60;;
4174;SDS011;2101;48.290;14.382;2022-12-05T16:54:27;15.00;;;3.60;;
4174;SDS011;2101;48.290;14.382;2022-12-05T16:56:54;17.00;;;3.57;;
4174;SDS011;2101;48.290;14.382;2022-12-05T16:59:22;15.93;;;3.50;;
4174;SDS011;2101;48.290;14.382;2022-12-05T17:01:49;16.80;;;3.60;;
4174;SDS011;2101;48.290;14.382;2022-12-05T17:04:15;16.90;;;4.13;;
4174;SDS011;2101;48.290;14.382;2022-12-05T17:06:41;17.67;;;3.00;;
4174;SDS011;2101;48.290;14.382;2022-12-05T17:09:07;16.47;;;4.07;;
4174;SDS011;2101;48.290;14.382;2022-12-05T17:11:33;19.87;;;3.60;;
4174;SDS011;2101;48.290;14.382;2022-12-05T17:14:01;17.17;;;3.60;;
4174;SDS011;2101;48.290;14.382;2022-12-05T17:16:28;19.40;;;3.97;;
4174;SDS011;2101;48.290;14.382;2022-12-05T17:18:54;17.63;;;3.60;;
4174;SDS011;2101;48.290;14.382;2022-12-05T17:21:21;22.27;;;5.33;;
4174;SDS011;2101;48.290;14.382;2022-12-05T17:23:47;17.57;;;4.00;;
4174;SDS011;2101;48.290;14.382;2022-12-05T17:26:15;20.77;;;4.90;;
4174;SDS011;2101;48.290;14.382;2022-12-05T17:28:42;19.20;;;3.60;;
4174;SDS011;2101;48.290;14.382;2022-12-05T17:31:11;17.13;;;3.80;;
4174;SDS011;2101;48.290;14.382;2022-12-05T17:33:40;16.50;;;3.60;;
4174;SDS011;2101;48.290;14.382;2022-12-05T17:36:06;15.90;;;3.10;;
4174;SDS011;2101;48.290;14.382;2022-12-05T17:38:34;13.27;;;2.80;;
4174;SDS011;2101;48.290;14.382;2022-12-05T17:41:00;16.27;;;3.30;;
4174;SDS011;2101;48.290;14.382;2022-12-05T17:43:26;16.47;;;3.87;;
4174;SDS011;2101;48.290;14.382;2022-12-05T17:45:52;20.00;;;3.80;;
4174;SDS011;2101;48.290;14.382;2022-12-05T17:48:19;21.30;;;3.93;;
4174;SDS011;2101;48.290;14.382;2022-12-05T17:50:47;15.97;;;3.30;;
4174;SDS011;2101;48.290;14.382;2022-12-05T17:53:17;19.70;;;4.00;;
4174;SDS011;2101;48.290;14.382;2022-12-05T17:55:44;18.40;;;3.47;;
4174;SDS011;2101;48.290;14.382;2022-12-05T17:58:12;14.90;;;3.50;;
4174;SDS011;2101;48.290;14.382;2022-12-05T18:00:39;16.40;;;3.40;;
4174;SDS011;2101;48.290;14.382;2022-12-05T18:03:05;16.20;;;3.33;;
4174;SDS011;2101;48.290;14.382;2022-12-05T18:05:31;17.53;;;3.90;;
4174;SDS011;2101;48.290;14.382;2022-12-05T18:07:58;17.50;;;3.60;;
4174;SDS011;2101;48.290;14.382;2022-12-05T18:10:25;21.17;;;3.80;;
4174;SDS011;2101;48.290;14.382;2022-12-05T18:12:51;18.10;;;3.70;;